sensor_id;sensor_type;location;lat;lon;timestamp;pressure;altitude;pressure_sealevel;temperature;humidity
35519;BME280;21627;48.216;16.482;2023-01-01T00:00:47;100440.97;;;1.51;100.00
35519;BME280;21627;48.216;16.482;2023-01-01T00:03:14;100446.66;;;1.63;100.00
35519;BME280;21627;48.216;16.482;2023-01-01T00:05:42;100444.84;;;1.61;100.00
35519;BME280;21627;48.216;16.482;2023-01-01T00:08:09;100450.00;;;1.62;100.00
35519;BME280;21627;48.216;16.482;2023-01-01T00:10:37;100448.97;;;1.59;100.00
35519;BME280;21627;48.216;16.482;2023-01-01T00:13:04;100435.75;;;1.48;100.00
35519;BME280;21627;48.216;16.482;2023-01-01T00:15:32;100442.66;;;1.50;100.00
35519;BME280;21627;48.216;16.482;2023-01-01T00:17:59;100440.09;;;1.50;100.00
35519;BME280;21627;48.216;16.482;2023-01-01T00:20:29;100438.38;;;1.49;100.00
35519;BME280;21627;48.216;16.482;2023-01-01T00:23:01;100449.16;;;1.44;100.00
35519;BME280;21627;48.216;16.482;2023-01-01T00:25:29;100454.25;;;1.44;100.00
35519;BME280;21627;48.216;16.482;2023-01-01T00:27:58;100446.28;;;1.38;100.00
35519;BME280;21627;48.216;16.482;2023-01-01T00:30:25;100460.84;;;1.40;100.00
35519;BME280;21627;48.216;16.482;2023-01-01T00:32:53;100456.56;;;1.39;100.00
35519;BME280;21627;48.216;16.482;2023-01-01T00:35:26;100444.97;;;1.28;100.00
35519;BME280;21627;48.216;16.482;2023-01-01T00:37:54;100437.91;;;1.22;100.00
35519;BME280;21627;48.216;16.482;2023-01-01T00:40:22;100444.03;;;1.26;100.00
35519;BME280;21627;48.216;16.482;2023-01-01T00:42:49;100440.56;;;1.24;100.00
35519;BME280;21627;48.216;16.482;2023-01-01T00:45:16;100438.78;;;1.23;100.00
35519;BME280;21627;48.216;16.482;2023-01-01T00:47:52;100437.84;;;1.21;100.00
35519;BME280;21627;48.216;16.482;2023-01-01T00:50:20;100437.84;;;1.21;100.00
35519;BME280;21627;48.216;16.482;2023-01-01T00:52:48;100428.31;;;1.17;100.00
35519;BME280;21627;48.216;16.482;2023-01-01T00:55:16;100442.06;;;1.20;100.00
35519;BME280;21627;48.216;16.482;2023-01-01T00:57:43;100422.91;;;1.11;100.00
35519;BME280;21627;48.216;16.482;2023-01-01T01:00:13;100433.31;;;1.15;100.00
35519;BME280;21627;48.216;16.482;2023-01-01T01:02:41;100423.81;;;1.11;100.00
35519;BME280;21627;48.216;16.482;2023-01-01T01:05:08;100391.56;;;0.94;100.00
35519;BME280;21627;48.216;16.482;2023-01-01T01:07:36;100427.00;;;1.07;100.00
35519;BME280;21627;48.216;16.482;2023-01-01T01:10:05;100424.59;;;1.10;100.00
35519;BME280;21627;48.216;16.482;2023-01-01T01:12:34;100442.56;;;1.13;100.00
35519;BME280;21627;48.216;16.482;2023-01-01T01:15:02;100460.03;;;1.23;100.00
35519;BME280;21627;48.216;16.482;2023-01-01T01:17:29;100452.75;;;1.13;100.00
35519;BME280;21627;48.216;16.482;2023-01-01T01:19:59;100443.09;;;1.06;100.00
35519;BME280;21627;48.216;16.482;2023-01-01T01:22:30;100456.97;;;1.13;100.00
35519;BME280;21627;48.216;16.482;2023-01-01T01:24:57;100458.75;;;1.14;100.00
35519;BME280;21627;48.216;16.482;2023-01-01T01:27:25;100456.47;;;1.20;100.00
35519;BME280;21627;48.216;16.482;2023-01-01T01:29:52;100458.38;;;1.24;100.00
35519;BME280;21627;48.216;16.482;2023-01-01T01:32:20;100457.47;;;1.23;100.00
35519;BME280;21627;48.216;16.482;2023-01-01T01:34:47;100450.94;;;1.28;100.00
35519;BME280;21627;48.216;16.482;2023-01-01T01:37:14;100448.47;;;1.30;100.00
35519;BME280;21627;48.216;16.482;2023-01-01T01:39:41;100446.00;;;1.32;100.00
35519;BME280;21627;48.216;16.482;2023-01-01T01:42:16;100426.91;;;1.23;100.00
35519;BME280;21627;48.216;16.482;2023-01-01T01:45:05;100426.19;;;1.26;100.00
35519;BME280;21627;48.216;16.482;2023-01-01T01:50:39;100418.63;;;1.27;100.00
35519;BME280;21627;48.216;16.482;2023-01-01T01:53:28;100426.28;;;1.27;100.00
35519;BME280;21627;48.216;16.482;2023-01-01T01:56:01;100420.19;;;1.24;100.00
35519;BME280;21627;48.216;16.482;2023-01-01T01:58:30;100399.34;;;1.15;100.00
35519;BME280;21627;48.216;16.482;2023-01-01T02:00:59;100419.09;;;1.19;100.00
35519;BME280;21627;48.216;16.482;2023-01-01T02:03:45;100420.69;;;1.17;100.00
35519;BME280;21627;48.216;16.482;2023-01-01T02:06:17;100414.53;;;1.13;100.00
35519;BME280;21627;48.216;16.482;2023-01-01T02:08:45;100403.06;;;1.03;100.00
35519;BME280;21627;48.216;16.482;2023-01-01T02:11:17;100403.63;;;0.98;100.00
35519;BME280;21627;48.216;16.482;2023-01-01T02:13:49;100407.94;;;0.99;100.00
35519;BME280;21627;48.216;16.482;2023-01-01T02:16:22;100415.63;;;1.00;100.00
35519;BME280;21627;48.216;16.482;2023-01-01T02:19:16;100413.97;;;1.01;100.00
35519;BME280;21627;48.216;16.482;2023-01-01T02:21:55;100399.53;;;0.83;100.00
35519;BME280;21627;48.216;16.482;2023-01-01T02:28:05;100425.91;;;0.85;100.00
35519;BME280;21627;48.216;16.482;2023-01-01T02:30:38;100421.41;;;0.80;100.00
35519;BME280;21627;48.216;16.482;2023-01-01T02:33:13;100417.13;;;0.79;100.00
35519;BME280;21627;48.216;16.482;2023-01-01T02:36:01;100406.47;;;0.70;100.00
35519;BME280;21627;48.216;16.482;2023-01-01T02:38:37;100416.41;;;0.65;100.00
35519;BME280;21627;48.216;16.482;2023-01-01T02:41:26;100426.78;;;0.68;100.00
35519;BME280;21627;48.216;16.482;2023-01-01T02:43:54;100424.00;;;0.63;100.00
35519;BME280;21627;48.216;16.482;2023-01-01T02:46:21;100421.94;;;0.56;100.00
35519;BME280;21627;48.216;16.482;2023-01-01T02:48:52;100444.16;;;0.60;100.00
35519;BME280;21627;48.216;16.482;2023-01-01T02:59:59;100443.25;;;0.58;100.00
35519;BME280;21627;48.216;16.482;2023-01-01T03:09:22;100471.63;;;0.66;100.00
35519;BME280;21627;48.216;16.482;2023-01-01T03:15:11;100486.91;;;0.66;100.00
35519;BME280;21627;48.216;16.482;2023-01-01T03:18:23;100469.00;;;0.64;100.00
35519;BME280;21627;48.216;16.482;2023-01-01T03:20:56;100476.72;;;0.66;100.00
35519;BME280;21627;48.216;16.482;2023-01-01T03:23:32;100486.09;;;0.67;100.00
35519;BME280;21627;48.216;16.482;2023-01-01T03:26:04;100481.72;;;0.64;100.00
35519;BME280;21627;48.216;16.482;2023-01-01T03:28:43;100486.91;;;0.66;100.00
35519;BME280;21627;48.216;16.482;2023-01-01T03:31:17;100498.19;;;0.71;100.00
35519;BME280;21627;48.216;16.482;2023-01-01T03:33:49;100494.69;;;0.69;100.00
35519;BME280;21627;48.216;16.482;2023-01-01T03:36:23;100486.50;;;0.58;100.00
35519;BME280;21627;48.216;16.482;2023-01-01T03:39:04;100499.63;;;0.66;100.00
35519;BME280;21627;48.216;16.482;2023-01-01T03:44:39;100510.75;;;0.68;100.00
35519;BME280;21627;48.216;16.482;2023-01-01T03:47:11;100515.03;;;0.69;100.00
35519;BME280;21627;48.216;16.482;2023-01-01T03:49:39;100525.63;;;0.77;100.00
35519;BME280;21627;48.216;16.482;2023-01-01T03:55:28;100541.84;;;0.79;100.00
35519;BME280;21627;48.216;16.482;2023-01-01T03:58:08;100542.63;;;0.78;100.00
35519;BME280;21627;48.216;16.482;2023-01-01T04:00:49;100531.53;;;0.76;100.00
35519;BME280;21627;48.216;16.482;2023-01-01T04:03:26;100515.84;;;0.68;100.00
35519;BME280;21627;48.216;16.482;2023-01-01T04:05:55;100518.78;;;0.76;100.00
35519;BME280;21627;48.216;16.482;2023-01-01T04:08:22;100506.84;;;0.75;100.00
35519;BME280;21627;48.216;16.482;2023-01-01T04:10:57;100512.75;;;0.74;100.00
35519;BME280;21627;48.216;16.482;2023-01-01T04:13:25;100499.91;;;0.72;100.00
35519;BME280;21627;48.216;16.482;2023-01-01T04:15:52;100504.16;;;0.72;100.00
35519;BME280;21627;48.216;16.482;2023-01-01T04:18:20;100510.91;;;0.71;100.00
35519;BME280;21627;48.216;16.482;2023-01-01T04:20:56;100509.00;;;0.67;100.00
35519;BME280;21627;48.216;16.482;2023-01-01T04:23:23;100513.94;;;0.64;100.00
35519;BME280;21627;48.216;16.482;2023-01-01T04:25:50;100513.69;;;0.59;100.00
35519;BME280;21627;48.216;16.482;2023-01-01T04:28:18;100518.69;;;0.58;100.00
35519;BME280;21627;48.216;16.482;2023-01-01T04:30:46;100528.72;;;0.55;100.00
35519;BME280;21627;48.216;16.482;2023-01-01T04:33:13;100527.75;;;0.53;100.00
35519;BME280;21627;48.216;16.482;2023-01-01T04:35:40;100517.66;;;0.38;100.00
35519;BME280;21627;48.216;16.482;2023-01-01T04:38:12;100523.06;;;0.44;100.00
35519;BME280;21627;48.216;16.482;2023-01-01T04:40:40;100527.75;;;0.53;100.00
35519;BME280;21627;48.216;16.482;2023-01-01T04:43:07;100527.69;;;0.51;100.00
35519;BME280;21627;48.216;16.482;2023-01-01T04:45:34;100533.66;;;0.52;100.00
35519;BME280;21627;48.216;16.482;2023-01-01T04:48:04;100521.63;;;0.49;100.00
35519;BME280;21627;48.216;16.482;2023-01-01T04:50:31;100521.47;;;0.46;100.00
35519;BME280;21627;48.216;16.482;2023-01-01T04:52:58;100530.47;;;0.56;100.00
35519;BME280;21627;48.216;16.482;2023-01-01T04:55:25;100531.25;;;0.55;100.00
35519;BME280;21627;48.216;16.482;2023-01-01T04:57:53;100513.75;;;0.45;100.00
35519;BME280;21627;48.216;16.482;2023-01-01T05:00:23;100518.13;;;0.47;100.00
35519;BME280;21627;48.216;16.482;2023-01-01T05:02:50;100532.94;;;0.54;100.00
35519;BME280;21627;48.216;16.482;2023-01-01T05:05:18;100530.28;;;0.53;100.00
35519;BME280;21627;48.216;16.482;2023-01-01T05:07:48;100528.47;;;0.50;100.00
35519;BME280;21627;48.216;16.482;2023-01-01T05:10:15;100526.63;;;0.48;100.00
35519;BME280;21627;48.216;16.482;2023-01-01T05:12:42;100531.66;;;0.46;100.00
35519;BME280;21627;48.216;16.482;2023-01-01T05:15:10;100537.06;;;0.52;100.00
35519;BME280;21627;48.216;16.482;2023-01-01T05:17:37;100528.31;;;0.47;100.00
35519;BME280;21627;48.216;16.482;2023-01-01T05:20:04;100540.47;;;0.53;100.00
35519;BME280;21627;48.216;16.482;2023-01-01T05:22:32;100528.16;;;0.44;100.00
35519;BME280;21627;48.216;16.482;2023-01-01T05:24:59;100552.31;;;0.52;100.00
35519;BME280;21627;48.216;16.482;2023-01-01T05:27:26;100555.03;;;0.55;100.00
35519;BME280;21627;48.216;16.482;2023-01-01T05:29:53;100560.06;;;0.54;100.00
35519;BME280;21627;48.216;16.482;2023-01-01T05:32:20;100554.81;;;0.51;100.00
35519;BME280;21627;48.216;16.482;2023-01-01T05:34:47;100559.19;;;0.53;100.00
35519;BME280;21627;48.216;16.482;2023-01-01T05:37:15;100563.31;;;0.51;100.00
35519;BME280;21627;48.216;16.482;2023-01-01T05:39:42;100575.31;;;0.54;100.00
35519;BME280;21627;48.216;16.482;2023-01-01T05:42:09;100556.84;;;0.41;100.00
35519;BME280;21627;48.216;16.482;2023-01-01T05:44:36;100559.47;;;0.43;100.00
35519;BME280;21627;48.216;16.482;2023-01-01T05:47:03;100561.13;;;0.42;100.00
35519;BME280;21627;48.216;16.482;2023-01-01T05:49:33;100560.97;;;0.39;100.00
35519;BME280;21627;48.216;16.482;2023-01-01T05:52:02;100568.44;;;0.36;100.00
35519;BME280;21627;48.216;16.482;2023-01-01T05:54:29;100564.22;;;0.37;100.00
35519;BME280;21627;48.216;16.482;2023-01-01T05:56:57;100572.19;;;0.43;100.00
35519;BME280;21627;48.216;16.482;2023-01-01T05:59:24;100582.28;;;0.41;100.00
35519;BME280;21627;48.216;16.482;2023-01-01T06:01:54;100587.53;;;0.45;100.00
35519;BME280;21627;48.216;16.482;2023-01-01T06:04:21;100585.09;;;0.46;100.00
35519;BME280;21627;48.216;16.482;2023-01-01T06:06:48;100568.53;;;0.38;100.00
35519;BME280;21627;48.216;16.482;2023-01-01T06:09:16;100600.34;;;0.46;100.00
35519;BME280;21627;48.216;16.482;2023-01-01T06:11:43;100597.72;;;0.45;100.00
35519;BME280;21627;48.216;16.482;2023-01-01T06:14:10;100591.75;;;0.44;100.00
35519;BME280;21627;48.216;16.482;2023-01-01T06:16:37;100579.44;;;0.35;100.00
35519;BME280;21627;48.216;16.482;2023-01-01T06:19:04;100595.97;;;0.43;100.00
35519;BME280;21627;48.216;16.482;2023-01-01T06:21:31;100584.84;;;0.41;100.00
35519;BME280;21627;48.216;16.482;2023-01-01T06:23:59;100597.44;;;0.40;100.00
35519;BME280;21627;48.216;16.482;2023-01-01T06:26:30;100590.06;;;0.28;100.00
35519;BME280;21627;48.216;16.482;2023-01-01T06:28:59;100618.06;;;0.45;100.00
35519;BME280;21627;48.216;16.482;2023-01-01T06:31:28;100618.00;;;0.43;100.00
35519;BME280;21627;48.216;16.482;2023-01-01T06:34:03;100625.38;;;0.38;100.00
35519;BME280;21627;48.216;16.482;2023-01-01T06:36:30;100623.78;;;0.40;100.00
35519;BME280;21627;48.216;16.482;2023-01-01T06:38:57;100611.78;;;0.38;100.00
35519;BME280;21627;48.216;16.482;2023-01-01T06:41:29;100603.19;;;0.36;100.00
35519;BME280;21627;48.216;16.482;2023-01-01T06:43:58;100596.31;;;0.35;100.00
35519;BME280;21627;48.216;16.482;2023-01-01T06:46:33;100585.28;;;0.34;100.00
35519;BME280;21627;48.216;16.482;2023-01-01T06:49:06;100594.69;;;0.35;100.00
35519;BME280;21627;48.216;16.482;2023-01-01T06:51:41;100619.75;;;0.44;100.00
35519;BME280;21627;48.216;16.482;2023-01-01T06:54:10;100616.22;;;0.42;100.00
35519;BME280;21627;48.216;16.482;2023-01-01T06:56:38;100595.19;;;0.30;100.00
35519;BME280;21627;48.216;16.482;2023-01-01T06:59:05;100595.41;;;0.33;100.00
35519;BME280;21627;48.216;16.482;2023-01-01T07:01:35;100598.97;;;0.36;100.00
35519;BME280;21627;48.216;16.482;2023-01-01T07:04:10;100611.59;;;0.35;100.00
35519;BME280;21627;48.216;16.482;2023-01-01T07:06:38;100620.91;;;0.34;100.00
35519;BME280;21627;48.216;16.482;2023-01-01T07:09:06;100635.53;;;0.38;100.00
35519;BME280;21627;48.216;16.482;2023-01-01T07:11:34;100628.78;;;0.39;100.00
35519;BME280;21627;48.216;16.482;2023-01-01T07:14:02;100618.34;;;0.34;100.00
35519;BME280;21627;48.216;16.482;2023-01-01T07:16:30;100633.00;;;0.38;100.00
35519;BME280;21627;48.216;16.482;2023-01-01T07:18:57;100632.91;;;0.37;100.00
35519;BME280;21627;48.216;16.482;2023-01-01T07:24:02;100649.31;;;0.42;100.00
35519;BME280;21627;48.216;16.482;2023-01-01T07:26:31;100650.66;;;0.35;100.00
35519;BME280;21627;48.216;16.482;2023-01-01T07:29:00;100674.13;;;0.46;100.00
35519;BME280;21627;48.216;16.482;2023-01-01T07:31:35;100678.50;;;0.49;100.00
35519;BME280;21627;48.216;16.482;2023-01-01T07:34:05;100675.31;;;0.53;100.00
35519;BME280;21627;48.216;16.482;2023-01-01T07:36:32;100668.41;;;0.50;100.00
35519;BME280;21627;48.216;16.482;2023-01-01T07:39:00;100657.28;;;0.48;100.00
35519;BME280;21627;48.216;16.482;2023-01-01T07:41:27;100697.59;;;0.72;100.00
35519;BME280;21627;48.216;16.482;2023-01-01T07:43:54;100703.78;;;0.77;100.00
35519;BME280;21627;48.216;16.482;2023-01-01T07:46:24;100697.13;;;0.79;100.00
35519;BME280;21627;48.216;16.482;2023-01-01T07:48:51;100699.94;;;0.83;100.00
35519;BME280;21627;48.216;16.482;2023-01-01T07:51:18;100694.47;;;0.77;100.00
35519;BME280;21627;48.216;16.482;2023-01-01T07:53:45;100711.28;;;0.90;100.00
35519;BME280;21627;48.216;16.482;2023-01-01T07:56:13;100701.03;;;0.89;100.00
35519;BME280;21627;48.216;16.482;2023-01-01T07:58:40;100716.09;;;1.00;100.00
35519;BME280;21627;48.216;16.482;2023-01-01T08:01:12;100707.94;;;1.06;100.00
35519;BME280;21627;48.216;16.482;2023-01-01T08:03:41;100710.63;;;1.09;100.00
35519;BME280;21627;48.216;16.482;2023-01-01T08:06:10;100707.03;;;1.05;100.00
35519;BME280;21627;48.216;16.482;2023-01-01T08:08:38;100712.72;;;1.16;100.00
35519;BME280;21627;48.216;16.482;2023-01-01T08:11:06;100721.28;;;1.18;100.00
35519;BME280;21627;48.216;16.482;2023-01-01T08:13:33;100715.31;;;1.18;100.00
35519;BME280;21627;48.216;16.482;2023-01-01T08:16:00;100700.69;;;1.14;100.00
35519;BME280;21627;48.216;16.482;2023-01-01T08:18:28;100717.56;;;1.28;100.00
35519;BME280;21627;48.216;16.482;2023-01-01T08:20:55;100722.75;;;1.29;100.00
35519;BME280;21627;48.216;16.482;2023-01-01T08:23:23;100708.75;;;1.21;100.00
35519;BME280;21627;48.216;16.482;2023-01-01T08:25:51;100728.72;;;1.30;100.00
35519;BME280;21627;48.216;16.482;2023-01-01T08:28:18;100723.53;;;1.28;100.00
35519;BME280;21627;48.216;16.482;2023-01-01T08:30:45;100724.47;;;1.30;100.00
35519;BME280;21627;48.216;16.482;2023-01-01T08:33:12;100726.25;;;1.32;100.00
35519;BME280;21627;48.216;16.482;2023-01-01T08:35:41;100730.53;;;1.33;100.00
35519;BME280;21627;48.216;16.482;2023-01-01T08:38:10;100735.78;;;1.36;100.00
35519;BME280;21627;48.216;16.482;2023-01-01T08:40:38;100732.63;;;1.40;100.00
35519;BME280;21627;48.216;16.482;2023-01-01T08:43:06;100722.59;;;1.43;100.00
35519;BME280;21627;48.216;16.482;2023-01-01T08:45:33;100714.31;;;1.47;100.00
35519;BME280;21627;48.216;16.482;2023-01-01T08:48:00;100721.16;;;1.64;100.00
35519;BME280;21627;48.216;16.482;2023-01-01T08:50:28;100690.47;;;1.63;100.00
35519;BME280;21627;48.216;16.482;2023-01-01T08:52:57;100686.88;;;1.76;100.00
35519;BME280;21627;48.216;16.482;2023-01-01T08:55:25;100721.50;;;2.05;100.00
35519;BME280;21627;48.216;16.482;2023-01-01T08:57:53;100731.00;;;2.25;100.00
35519;BME280;21627;48.216;16.482;2023-01-01T09:00:20;100731.66;;;2.39;100.00
35519;BME280;21627;48.216;16.482;2023-01-01T09:02:47;100730.22;;;2.44;100.00
35519;BME280;21627;48.216;16.482;2023-01-01T09:05:15;100715.56;;;2.40;100.00
35519;BME280;21627;48.216;16.482;2023-01-01T09:07:42;100723.66;;;2.49;100.00
35519;BME280;21627;48.216;16.482;2023-01-01T09:10:09;100717.38;;;2.60;100.00
35519;BME280;21627;48.216;16.482;2023-01-01T09:12:36;100735.84;;;2.73;100.00
35519;BME280;21627;48.216;16.482;2023-01-01T09:15:04;100749.34;;;2.88;100.00
35519;BME280;21627;48.216;16.482;2023-01-01T09:17:32;100749.47;;;2.91;100.00
35519;BME280;21627;48.216;16.482;2023-01-01T09:19:59;100747.88;;;2.93;100.00
35519;BME280;21627;48.216;16.482;2023-01-01T09:22:26;100745.59;;;2.99;100.00
35519;BME280;21627;48.216;16.482;2023-01-01T09:24:53;100739.69;;;3.00;100.00
35519;BME280;21627;48.216;16.482;2023-01-01T09:27:20;100749.41;;;3.08;100.00
35519;BME280;21627;48.216;16.482;2023-01-01T09:29:47;100735.59;;;3.04;100.00
35519;BME280;21627;48.216;16.482;2023-01-01T09:32:14;100755.84;;;3.19;100.00
35519;BME280;21627;48.216;16.482;2023-01-01T09:34:42;100738.56;;;3.13;100.00
35519;BME280;21627;48.216;16.482;2023-01-01T09:37:17;100756.63;;;3.36;100.00
35519;BME280;21627;48.216;16.482;2023-01-01T09:39:45;100749.00;;;3.37;100.00
35519;BME280;21627;48.216;16.482;2023-01-01T09:45:24;100761.91;;;3.58;100.00
35519;BME280;21627;48.216;16.482;2023-01-01T09:47:57;100760.56;;;3.66;100.00
35519;BME280;21627;48.216;16.482;2023-01-01T09:50:39;100756.63;;;3.75;100.00
35519;BME280;21627;48.216;16.482;2023-01-01T09:53:34;100745.13;;;3.84;100.00
35519;BME280;21627;48.216;16.482;2023-01-01T09:56:04;100751.31;;;4.30;100.00
35519;BME280;21627;48.216;16.482;2023-01-01T09:58:35;100761.13;;;4.61;100.00
35519;BME280;21627;48.216;16.482;2023-01-01T10:18:47;100728.09;;;6.34;100.00
35519;BME280;21627;48.216;16.482;2023-01-01T10:21:20;100743.09;;;6.75;100.00
35519;BME280;21627;48.216;16.482;2023-01-01T10:24:03;100737.84;;;6.99;100.00
35519;BME280;21627;48.216;16.482;2023-01-01T10:26:34;100735.97;;;7.22;100.00
35519;BME280;21627;48.216;16.482;2023-01-01T10:29:34;100719.97;;;7.32;100.00
35519;BME280;21627;48.216;16.482;2023-01-01T10:32:17;100726.50;;;7.51;100.00
35519;BME280;21627;48.216;16.482;2023-01-01T10:34:45;100721.31;;;7.49;100.00
35519;BME280;21627;48.216;16.482;2023-01-01T10:37:13;100720.66;;;7.56;100.00
35519;BME280;21627;48.216;16.482;2023-01-01T10:39:42;100729.50;;;7.66;100.00
35519;BME280;21627;48.216;16.482;2023-01-01T10:42:12;100743.28;;;7.68;100.00
35519;BME280;21627;48.216;16.482;2023-01-01T10:44:40;100728.41;;;7.58;100.00
35519;BME280;21627;48.216;16.482;2023-01-01T10:47:28;100742.19;;;7.60;100.00
35519;BME280;21627;48.216;16.482;2023-01-01T10:49:59;100740.38;;;7.56;100.00
35519;BME280;21627;48.216;16.482;2023-01-01T10:52:33;100723.25;;;7.56;100.00
35519;BME280;21627;48.216;16.482;2023-01-01T10:55:02;100723.59;;;7.69;100.00
35519;BME280;21627;48.216;16.482;2023-01-01T10:57:33;100713.69;;;7.84;100.00
35519;BME280;21627;48.216;16.482;2023-01-01T11:00:22;100719.97;;;7.94;100.00
35519;BME280;21627;48.216;16.482;2023-01-01T11:03:18;100724.72;;;8.13;100.00
35519;BME280;21627;48.216;16.482;2023-01-01T11:06:20;100702.66;;;8.23;100.00
35519;BME280;21627;48.216;16.482;2023-01-01T11:08:56;100716.28;;;8.52;100.00
35519;BME280;21627;48.216;16.482;2023-01-01T11:11:53;100720.94;;;8.69;100.00
35519;BME280;21627;48.216;16.482;2023-01-01T11:17:00;100720.72;;;8.96;100.00
35519;BME280;21627;48.216;16.482;2023-01-01T11:19:36;100728.72;;;9.09;100.00
35519;BME280;21627;48.216;16.482;2023-01-01T11:22:05;100707.47;;;9.20;100.00
35519;BME280;21627;48.216;16.482;2023-01-01T11:24:34;100728.59;;;9.44;100.00
35519;BME280;21627;48.216;16.482;2023-01-01T11:27:24;100727.28;;;9.63;100.00
35519;BME280;21627;48.216;16.482;2023-01-01T11:30:18;100713.84;;;9.81;100.00
35519;BME280;21627;48.216;16.482;2023-01-01T11:32:46;100713.94;;;9.86;100.00
35519;BME280;21627;48.216;16.482;2023-01-01T11:35:24;100714.84;;;9.88;100.00
35519;BME280;21627;48.216;16.482;2023-01-01T11:37:54;100711.34;;;9.86;100.00
35519;BME280;21627;48.216;16.482;2023-01-01T11:40:37;100713.84;;;9.81;100.00
35519;BME280;21627;48.216;16.482;2023-01-01T11:43:19;100715.13;;;9.58;100.00
35519;BME280;21627;48.216;16.482;2023-01-01T11:45:56;100709.16;;;9.62;100.00
35519;BME280;21627;48.216;16.482;2023-01-01T11:48:31;100706.72;;;9.69;100.00
35519;BME280;21627;48.216;16.482;2023-01-01T11:51:06;100705.22;;;9.81;100.00
35519;BME280;21627;48.216;16.482;2023-01-01T11:53:39;100701.75;;;9.80;100.00
35519;BME280;21627;48.216;16.482;2023-01-01T11:56:20;100712.53;;;10.05;100.00
35519;BME280;21627;48.216;16.482;2023-01-01T11:59:17;100706.88;;;10.27;100.00
35519;BME280;21627;48.216;16.482;2023-01-01T12:01:57;100706.13;;;10.33;100.00
35519;BME280;21627;48.216;16.482;2023-01-01T12:07:11;100701.88;;;10.33;100.00
35519;BME280;21627;48.216;16.482;2023-01-01T12:10:07;100699.59;;;10.55;100.00
35519;BME280;21627;48.216;16.482;2023-01-01T12:13:23;100697.16;;;10.66;100.00
35519;BME280;21627;48.216;16.482;2023-01-01T12:16:21;100694.88;;;10.86;100.00
35519;BME280;21627;48.216;16.482;2023-01-01T12:19:10;100696.00;;;11.06;100.00
35519;BME280;21627;48.216;16.482;2023-01-01T12:21:40;100678.81;;;11.10;98.86
35519;BME280;21627;48.216;16.482;2023-01-01T12:24:18;100691.81;;;11.14;98.37
35519;BME280;21627;48.216;16.482;2023-01-01T12:36:46;100687.06;;;11.50;95.75
35519;BME280;21627;48.216;16.482;2023-01-01T12:47:43;100689.88;;;11.71;93.45
35519;BME280;21627;48.216;16.482;2023-01-01T12:56:11;100684.44;;;12.33;92.94
35519;BME280;21627;48.216;16.482;2023-01-01T13:01:34;100675.72;;;12.22;90.40
35519;BME280;21627;48.216;16.482;2023-01-01T13:04:32;100673.25;;;12.41;90.28
35519;BME280;21627;48.216;16.482;2023-01-01T13:07:03;100679.41;;;12.60;89.70
35519;BME280;21627;48.216;16.482;2023-01-01T13:09:44;100664.66;;;12.49;88.32
35519;BME280;21627;48.216;16.482;2023-01-01T13:12:20;100662.97;;;12.59;87.95
35519;BME280;21627;48.216;16.482;2023-01-01T13:14:49;100673.34;;;12.56;88.91
35519;BME280;21627;48.216;16.482;2023-01-01T13:19:45;100678.63;;;12.71;88.62
35519;BME280;21627;48.216;16.482;2023-01-01T13:28:10;100685.56;;;12.74;88.18
35519;BME280;21627;48.216;16.482;2023-01-01T13:33:20;100687.09;;;12.44;92.16
35519;BME280;21627;48.216;16.482;2023-01-01T13:38:56;100681.97;;;12.50;92.45
35519;BME280;21627;48.216;16.482;2023-01-01T13:41:39;100693.13;;;12.42;92.48
35519;BME280;21627;48.216;16.482;2023-01-01T13:46:47;100691.81;;;11.89;96.96
35519;BME280;21627;48.216;16.482;2023-01-01T14:03:58;100692.47;;;11.69;98.75
35519;BME280;21627;48.216;16.482;2023-01-01T14:06:33;100703.63;;;11.65;100.00
35519;BME280;21627;48.216;16.482;2023-01-01T14:09:15;100699.00;;;11.37;100.00
35519;BME280;21627;48.216;16.482;2023-01-01T14:11:45;100711.97;;;11.40;100.00
35519;BME280;21627;48.216;16.482;2023-01-01T14:14:27;100726.63;;;11.38;99.44
35519;BME280;21627;48.216;16.482;2023-01-01T14:17:01;100725.41;;;11.10;100.00
35519;BME280;21627;48.216;16.482;2023-01-01T14:19:31;100725.28;;;11.02;100.00
35519;BME280;21627;48.216;16.482;2023-01-01T14:21:59;100733.69;;;10.86;100.00
35519;BME280;21627;48.216;16.482;2023-01-01T14:24:27;100732.63;;;10.73;100.00
35519;BME280;21627;48.216;16.482;2023-01-01T14:26:54;100740.16;;;10.56;100.00
35519;BME280;21627;48.216;16.482;2023-01-01T14:29:28;100747.25;;;10.19;100.00
35519;BME280;21627;48.216;16.482;2023-01-01T14:31:59;100750.31;;;9.98;100.00
35519;BME280;21627;48.216;16.482;2023-01-01T14:34:31;100739.00;;;9.91;100.00
35519;BME280;21627;48.216;16.482;2023-01-01T14:37:02;100731.06;;;9.82;100.00
35519;BME280;21627;48.216;16.482;2023-01-01T14:39:33;100743.13;;;9.82;100.00
35519;BME280;21627;48.216;16.482;2023-01-01T14:42:12;100723.75;;;9.60;100.00
35519;BME280;21627;48.216;16.482;2023-01-01T14:44:47;100749.59;;;9.61;100.00
35519;BME280;21627;48.216;16.482;2023-01-01T14:47:48;100751.03;;;9.45;100.00
35519;BME280;21627;48.216;16.482;2023-01-01T14:52:44;100764.25;;;9.21;100.00
35519;BME280;21627;48.216;16.482;2023-01-01T14:55:18;100759.63;;;9.06;100.00
35519;BME280;21627;48.216;16.482;2023-01-01T14:57:51;100742.03;;;8.87;100.00
35519;BME280;21627;48.216;16.482;2023-01-01T15:00:25;100761.50;;;8.76;100.00
35519;BME280;21627;48.216;16.482;2023-01-01T15:02:53;100765.63;;;8.68;100.00
35519;BME280;21627;48.216;16.482;2023-01-01T15:05:33;100762.50;;;8.46;100.00